createdAt,value
2022-08-26T00:01:07.988Z,94894.03
2022-08-26T00:03:06.426Z,94881.09
2022-08-26T00:05:06.549Z,94887.44
2022-08-26T00:07:06.619Z,94887.19
2022-08-26T00:09:08.114Z,94889.03
2022-08-26T00:11:07.300Z,94888.22
2022-08-26T00:13:06.708Z,94887.78
2022-08-26T00:15:09.881Z,94879.56
2022-08-26T00:17:08.661Z,94887.78
2022-08-26T00:19:07.028Z,94885.59
2022-08-26T00:21:07.417Z,94887.00
2022-08-26T00:23:07.524Z,94884.09
2022-08-26T00:25:06.844Z,94891.75
2022-08-26T00:27:07.557Z,94892.53
2022-08-26T00:29:08.329Z,94890.34
2022-08-26T00:31:07.677Z,94884.41
2022-08-26T00:33:09.880Z,94881.09
2022-08-26T00:35:10.594Z,94884.78
2022-08-26T00:37:11.655Z,94889.47
2022-08-26T00:39:14.496Z,94880.66
2022-08-26T00:41:12.986Z,94888.88
2022-08-26T00:43:11.890Z,94885.63
2022-08-26T00:45:11.962Z,94885.41
2022-08-26T00:47:17.650Z,94883.84
2022-08-26T00:49:20.032Z,94888.31
2022-08-26T00:51:20.212Z,94886.28
2022-08-26T00:53:23.987Z,94883.41
2022-08-26T00:55:37.748Z,94877.25
2022-08-26T00:57:37.346Z,94886.31
2022-08-26T00:59:36.225Z,94883.09
2022-08-26T01:01:38.562Z,94889.63
2022-08-26T01:03:39.320Z,94888.66
2022-08-26T01:05:40.274Z,94886.63
2022-08-26T01:07:39.493Z,94883.84
2022-08-26T01:09:38.493Z,94876.69
2022-08-26T01:11:39.846Z,94890.31
2022-08-26T01:13:39.553Z,94879.19
2022-08-26T01:15:44.017Z,94887.19
2022-08-26T01:17:43.893Z,94879.63
2022-08-26T01:19:46.157Z,94876.53
2022-08-26T01:21:50.614Z,94873.88
2022-08-26T01:23:57.510Z,94870.22
2022-08-26T01:26:00.741Z,94863.63
2022-08-26T01:28:03.553Z,94869.78
2022-08-26T01:30:03.519Z,94863.84
2022-08-26T01:32:02.143Z,94860.41
2022-08-26T01:34:10.852Z,94866.31
2022-08-26T01:36:09.759Z,94868.53
2022-08-26T01:38:08.307Z,94865.03
2022-08-26T01:40:11.504Z,94866.75
2022-08-26T01:42:12.494Z,94865.50
2022-08-26T01:44:16.717Z,94866.69
2022-08-26T01:46:15.756Z,94872.53
2022-08-26T01:48:20.303Z,94873.19
2022-08-26T01:50:28.238Z,94868.41
2022-08-26T01:52:31.437Z,94868.34
2022-08-26T01:54:29.799Z,94876.34
2022-08-26T01:56:33.278Z,94867.97
2022-08-26T01:58:39.322Z,94864.66
2022-08-26T02:00:38.275Z,94873.25
2022-08-26T02:02:36.790Z,94873.19
2022-08-26T02:04:39.114Z,94871.13
2022-08-26T02:06:39.106Z,94872.69
2022-08-26T02:08:42.297Z,94872.91
2022-08-26T02:10:40.775Z,94863.66
2022-08-26T02:12:42.719Z,94868.97
2022-08-26T02:14:44.450Z,94868.25
2022-08-26T02:16:46.998Z,94872.34
2022-08-26T02:18:46.989Z,94871.69
2022-08-26T02:20:45.443Z,94871.88
2022-08-26T02:22:45.071Z,94872.69
2022-08-26T02:24:49.565Z,94864.38
2022-08-26T02:26:49.419Z,94863.06
2022-08-26T02:28:52.539Z,94864.78
2022-08-26T02:30:50.949Z,94876.03
2022-08-26T02:32:49.775Z,94869.16
2022-08-26T02:34:48.249Z,94867.91
2022-08-26T02:36:46.472Z,94867.44
2022-08-26T02:38:45.206Z,94875.50
2022-08-26T02:40:44.498Z,94869.59
2022-08-26T02:42:43.176Z,94868.34
2022-08-26T02:44:42.926Z,94870.88
2022-08-26T02:46:46.825Z,94874.41
2022-08-26T02:48:45.741Z,94870.31
2022-08-26T02:50:44.275Z,94868.03
2022-08-26T02:52:42.597Z,94859.38
2022-08-26T02:54:41.538Z,94869.66
2022-08-26T02:56:39.966Z,94872.63
2022-08-26T02:58:38.417Z,94869.09
2022-08-26T03:00:39.411Z,94860.03
2022-08-26T03:02:51.721Z,94868.19
2022-08-26T03:04:58.128Z,94878.63
2022-08-26T03:07:00.651Z,94869.34
2022-08-26T03:08:59.564Z,94874.09
2022-08-26T03:10:57.794Z,94877.41
2022-08-26T03:12:56.054Z,94877.00
2022-08-26T03:14:54.698Z,94872.53
2022-08-26T03:16:55.646Z,94880.69
2022-08-26T03:18:54.376Z,94882.91
2022-08-26T03:20:52.598Z,94877.97
2022-08-26T03:22:53.342Z,94880.53
2022-08-26T03:24:54.605Z,94877.28
2022-08-26T03:26:53.268Z,94875.00
2022-08-26T03:29:09.144Z,94873.81
2022-08-26T03:31:08.084Z,94875.06
2022-08-26T03:33:08.794Z,94881.72
2022-08-26T03:35:08.618Z,94879.38
2022-08-26T03:37:06.972Z,94874.84
2022-08-26T03:39:06.404Z,94879.38
2022-08-26T03:41:04.865Z,94875.22
2022-08-26T03:43:07.311Z,94871.81
2022-08-26T03:45:12.140Z,94873.28
2022-08-26T03:47:10.399Z,94876.97
2022-08-26T03:49:10.245Z,94878.19
2022-08-26T03:51:14.058Z,94876.09
2022-08-26T03:53:16.653Z,94877.88
2022-08-26T03:55:19.450Z,94874.03
2022-08-26T03:57:21.918Z,94868.03
2022-08-26T03:59:20.532Z,94873.53
2022-08-26T04:01:19.207Z,94875.06
2022-08-26T04:03:37.490Z,94876.69
2022-08-26T04:05:37.305Z,94871.81
2022-08-26T04:07:36.961Z,94874.69
2022-08-26T04:09:35.353Z,94865.66
2022-08-26T04:11:35.939Z,94863.66
2022-08-26T04:13:36.915Z,94869.09
2022-08-26T04:15:35.226Z,94862.13
2022-08-26T04:17:33.839Z,94868.09
2022-08-26T04:19:33.921Z,94869.00
2022-08-26T04:21:33.791Z,94870.72
2022-08-26T04:23:32.207Z,94866.59
2022-08-26T04:25:46.445Z,94871.56
2022-08-26T04:27:44.793Z,94872.00
2022-08-26T04:29:47.963Z,94869.19
2022-08-26T04:31:48.596Z,94867.28
2022-08-26T04:33:49.748Z,94870.72
2022-08-26T04:35:48.398Z,94862.47
2022-08-26T04:37:48.984Z,94871.13
2022-08-26T04:39:47.105Z,94872.81
2022-08-26T04:41:45.848Z,94870.13
2022-08-26T04:43:44.173Z,94872.50
2022-08-26T04:45:43.684Z,94869.53
2022-08-26T04:47:41.838Z,94870.97
2022-08-26T04:49:40.264Z,94868.94
2022-08-26T04:51:40.135Z,94861.78
2022-08-26T04:53:40.525Z,94873.88
2022-08-26T04:55:39.943Z,94866.72
2022-08-26T04:57:43.152Z,94859.78
2022-08-26T04:59:41.837Z,94864.72
2022-08-26T05:01:44.284Z,94863.56
2022-08-26T05:03:42.738Z,94868.09
2022-08-26T05:05:42.649Z,94871.00
2022-08-26T05:07:41.232Z,94871.81
2022-08-26T05:09:42.234Z,94873.59
2022-08-26T05:11:42.740Z,94874.81
2022-08-26T05:13:41.439Z,94872.56
2022-08-26T05:15:40.185Z,94877.56
2022-08-26T05:17:42.225Z,94875.97
2022-08-26T05:19:40.478Z,94875.19
2022-08-26T05:21:41.463Z,94871.91
2022-08-26T05:23:39.915Z,94881.59
2022-08-26T05:25:41.988Z,94881.44
2022-08-26T05:27:42.763Z,94882.66
2022-08-26T05:29:41.259Z,94879.81
2022-08-26T05:31:39.711Z,94878.38
2022-08-26T05:33:38.308Z,94876.91
2022-08-26T05:35:40.380Z,94891.97
2022-08-26T05:37:39.193Z,94894.00
2022-08-26T05:39:37.521Z,94887.09
2022-08-26T05:41:43.043Z,94888.53
2022-08-26T05:43:43.635Z,94886.06
2022-08-26T05:45:46.068Z,94888.94
2022-08-26T05:47:44.687Z,94887.50
2022-08-26T05:49:45.365Z,94893.66
2022-08-26T05:51:49.970Z,94894.69
2022-08-26T05:53:54.870Z,94887.25
2022-08-26T05:55:54.528Z,94891.38
2022-08-26T05:57:55.473Z,94888.06
2022-08-26T05:59:53.872Z,94890.97
2022-08-26T06:01:52.294Z,94888.53
2022-08-26T06:03:52.945Z,94892.25
2022-08-26T06:05:51.261Z,94895.31
2022-08-26T06:08:07.052Z,94902.72
2022-08-26T06:10:31.021Z,94894.28
2022-08-26T06:12:25.062Z,94895.91
2022-08-26T06:14:26.125Z,94897.78
2022-08-26T06:16:25.383Z,94900.63
2022-08-26T06:18:27.427Z,94896.50
2022-08-26T06:20:27.306Z,94911.13
2022-08-26T06:22:43.762Z,94900.94
2022-08-26T06:24:59.342Z,94901.31
2022-08-26T06:26:59.123Z,94895.00
2022-08-26T06:28:57.622Z,94900.63
2022-08-26T06:30:57.622Z,94897.84
2022-08-26T06:32:56.497Z,94902.53
2022-08-26T06:34:56.208Z,94901.19
2022-08-26T06:36:54.540Z,94906.03
2022-08-26T06:38:53.978Z,94897.19
2022-08-26T06:40:54.944Z,94905.13
2022-08-26T06:42:53.159Z,94904.03
2022-08-26T06:44:52.526Z,94907.88
2022-08-26T06:46:52.170Z,94904.00
2022-08-26T06:48:52.060Z,94906.53
2022-08-26T06:50:51.049Z,94901.09
2022-08-26T06:52:49.368Z,94910.63
2022-08-26T06:54:47.681Z,94906.13
2022-08-26T06:56:48.953Z,94908.66
2022-08-26T06:58:48.119Z,94910.88
2022-08-26T07:00:47.314Z,94912.59
2022-08-26T07:02:47.441Z,94905.19
2022-08-26T07:04:47.720Z,94909.50
2022-08-26T07:06:49.338Z,94901.94
2022-08-26T07:08:47.989Z,94916.03
2022-08-26T07:10:46.406Z,94910.53
2022-08-26T07:12:47.246Z,94907.47
2022-08-26T07:14:47.453Z,94906.81
2022-08-26T07:16:47.671Z,94911.38
2022-08-26T07:18:48.604Z,94911.28
2022-08-26T07:20:48.154Z,94913.66
2022-08-26T07:22:46.356Z,94911.22
2022-08-26T07:24:44.814Z,94911.59
2022-08-26T07:26:43.727Z,94909.69
2022-08-26T07:28:42.092Z,94910.75
2022-08-26T07:30:42.124Z,94916.38
2022-08-26T07:32:40.539Z,94909.47
2022-08-26T07:34:40.982Z,94915.50
2022-08-26T07:36:40.186Z,94911.41
2022-08-26T07:38:41.055Z,94909.84
2022-08-26T07:40:41.105Z,94916.66
2022-08-26T07:42:40.099Z,94912.53
2022-08-26T07:44:39.721Z,94915.06
2022-08-26T07:46:38.870Z,94914.31
2022-08-26T07:48:37.367Z,94917.28
2022-08-26T07:50:49.833Z,94915.16
2022-08-26T07:52:50.147Z,94911.16
2022-08-26T07:54:48.337Z,94915.84
2022-08-26T07:56:46.671Z,94918.16
2022-08-26T07:58:48.957Z,94916.78
2022-08-26T08:00:50.218Z,94920.28
2022-08-26T08:02:48.864Z,94920.25
2022-08-26T08:04:48.175Z,94911.56
2022-08-26T08:06:48.488Z,94914.66
2022-08-26T08:08:46.856Z,94915.19
2022-08-26T08:10:48.801Z,94913.75
2022-08-26T08:12:47.375Z,94910.34
2022-08-26T08:14:46.941Z,94918.25
2022-08-26T08:16:47.213Z,94916.78
2022-08-26T08:18:49.732Z,94915.00
2022-08-26T08:20:54.674Z,94912.97
2022-08-26T08:23:05.491Z,94908.78
2022-08-26T08:25:08.055Z,94913.75
2022-08-26T08:27:07.002Z,94911.75
2022-08-26T08:29:08.927Z,94913.81
2022-08-26T08:31:07.790Z,94911.44
2022-08-26T08:33:06.169Z,94914.63
2022-08-26T08:35:11.760Z,94912.22
2022-08-26T08:37:10.887Z,94915.97
2022-08-26T08:39:11.701Z,94909.88
2022-08-26T08:41:28.141Z,94910.22
2022-08-26T08:43:37.685Z,94907.13
2022-08-26T08:45:40.472Z,94896.28
2022-08-26T08:47:43.088Z,94894.78
2022-08-26T08:49:41.352Z,94893.63
2022-08-26T08:51:46.981Z,94896.13
2022-08-26T08:53:49.514Z,94897.53
2022-08-26T08:56:08.664Z,94887.38
2022-08-26T08:58:08.373Z,94886.81
2022-08-26T09:00:12.545Z,94885.41
2022-08-26T09:02:20.265Z,94885.47
2022-08-26T09:04:55.034Z,94881.03
2022-08-26T09:09:04.637Z,94882.72
2022-08-26T09:11:05.782Z,94882.56
2022-08-26T09:13:08.207Z,94878.50
2022-08-26T09:15:21.565Z,94877.38
2022-08-26T09:17:34.605Z,94872.06
2022-08-26T09:19:41.251Z,94870.91
2022-08-26T09:21:39.914Z,94869.81
2022-08-26T09:23:41.786Z,94868.69
2022-08-26T09:25:48.120Z,94868.81
2022-08-26T09:27:51.614Z,94867.25
2022-08-26T09:29:50.403Z,94855.72
2022-08-26T09:31:49.240Z,94854.25
2022-08-26T09:33:48.488Z,94855.97
2022-08-26T09:35:48.942Z,94859.19
2022-08-26T09:39:52.708Z,94856.25
2022-08-26T09:42:04.549Z,94868.22
2022-08-26T09:44:21.830Z,94869.34
2022-08-26T09:46:26.344Z,94871.13
2022-08-26T09:48:31.305Z,94868.41
2022-08-26T09:50:31.907Z,94866.03
2022-08-26T09:52:30.166Z,94869.81
2022-08-26T09:54:30.317Z,94874.59
2022-08-26T09:56:33.698Z,94866.84
2022-08-26T09:58:37.802Z,94868.78
2022-08-26T10:00:39.822Z,94861.50
2022-08-26T10:02:47.731Z,94866.25
2022-08-26T10:04:54.356Z,94857.47
2022-08-26T10:06:58.155Z,94852.72
2022-08-26T10:09:00.055Z,94855.84
2022-08-26T10:11:00.427Z,94834.50
2022-08-26T10:13:05.599Z,94845.50
2022-08-26T10:15:10.750Z,94848.09
2022-08-26T10:17:20.564Z,94847.00
2022-08-26T10:19:23.684Z,94850.31
2022-08-26T10:21:34.034Z,94843.25
2022-08-26T10:25:56.964Z,94853.00
2022-08-26T10:28:08.155Z,94847.22
2022-08-26T10:30:13.832Z,94852.19
2022-08-26T10:32:19.248Z,94850.97
2022-08-26T10:34:18.290Z,94844.50
2022-08-26T10:37:05.101Z,94844.78
2022-08-26T10:39:00.587Z,94847.00
2022-08-26T10:41:09.776Z,94843.88
2022-08-26T10:43:13.575Z,94837.16
2022-08-26T10:45:16.473Z,94836.22
2022-08-26T10:47:20.488Z,94839.53
2022-08-26T10:49:19.200Z,94841.41
2022-08-26T10:51:23.574Z,94851.63
2022-08-26T10:53:26.395Z,94839.72
2022-08-26T10:55:35.136Z,94843.22
2022-08-26T10:57:45.180Z,94842.94
2022-08-26T10:59:54.741Z,94833.19
2022-08-26T11:02:01.189Z,94842.31
2022-08-26T11:04:14.200Z,94832.31
2022-08-26T11:06:24.296Z,94830.44
2022-08-26T11:08:30.718Z,94822.88
2022-08-26T11:10:59.031Z,94834.75
2022-08-26T11:13:00.594Z,94834.78
2022-08-26T11:14:59.383Z,94833.44
2022-08-26T11:16:58.804Z,94833.28
2022-08-26T11:18:57.397Z,94832.78
2022-08-26T11:20:57.155Z,94830.56
2022-08-26T11:22:59.592Z,94821.31
2022-08-26T11:25:16.340Z,94822.00
2022-08-26T11:28:05.349Z,94818.09
2022-08-26T11:30:10.062Z,94812.16
2022-08-26T11:32:26.430Z,94817.69
2022-08-26T11:34:52.720Z,94814.69
2022-08-26T11:37:01.843Z,94817.31
2022-08-26T11:39:03.348Z,94812.72
2022-08-26T11:41:09.897Z,94810.03
2022-08-26T11:43:13.485Z,94800.84
2022-08-26T11:45:24.178Z,94799.50
2022-08-26T11:47:29.827Z,94804.41
2022-08-26T11:49:29.649Z,94801.69
2022-08-26T11:51:29.343Z,94799.06
2022-08-26T11:53:33.826Z,94797.28
2022-08-26T11:55:34.294Z,94795.44
2022-08-26T11:57:36.581Z,94795.50
2022-08-26T11:59:39.862Z,94804.25
2022-08-26T12:01:40.157Z,94798.22
2022-08-26T12:03:47.057Z,94799.03
2022-08-26T12:05:49.232Z,94792.03
2022-08-26T12:07:53.019Z,94781.13
2022-08-26T12:09:58.889Z,94789.75
2022-08-26T12:12:12.872Z,94793.31
2022-08-26T12:14:20.840Z,94780.16
2022-08-26T12:16:25.876Z,94776.16
2022-08-26T12:18:29.610Z,94771.25
2022-08-26T12:20:46.076Z,94768.34
2022-08-26T12:22:48.281Z,94764.75
2022-08-26T12:24:50.166Z,94769.41
2022-08-26T12:26:50.453Z,94762.19
2022-08-26T12:28:53.256Z,94760.16
2022-08-26T12:31:02.749Z,94768.44
2022-08-26T12:33:22.470Z,94755.34
2022-08-26T12:35:23.996Z,94765.53
2022-08-26T12:37:23.503Z,94759.09
2022-08-26T12:39:27.401Z,94762.63
2022-08-26T12:41:44.493Z,94759.69
2022-08-26T12:43:45.933Z,94770.59
2022-08-26T12:45:57.028Z,94752.19
2022-08-26T12:47:57.493Z,94759.13
2022-08-26T12:50:03.403Z,94759.25
2022-08-26T12:52:02.170Z,94762.25
2022-08-26T12:54:02.315Z,94764.16
2022-08-26T12:56:03.623Z,94756.94
2022-08-26T12:58:21.415Z,94753.44
2022-08-26T13:00:43.486Z,94755.22
2022-08-26T13:02:41.878Z,94750.22
2022-08-26T13:04:42.633Z,94762.72
2022-08-26T13:06:40.947Z,94758.75
2022-08-26T13:08:41.647Z,94751.75
2022-08-26T13:10:41.660Z,94762.06
2022-08-26T13:12:41.155Z,94751.44
2022-08-26T13:14:40.665Z,94746.31
2022-08-26T13:16:42.203Z,94741.06
2022-08-26T13:18:41.000Z,94747.59
2022-08-26T13:20:44.028Z,94733.78
2022-08-26T13:22:42.454Z,94740.06
2022-08-26T13:24:43.577Z,94736.72
2022-08-26T13:26:43.450Z,94730.50
2022-08-26T13:28:42.459Z,94732.47
2022-08-26T13:30:44.423Z,94731.06
2022-08-26T13:32:44.413Z,94727.16
2022-08-26T13:34:43.090Z,94718.28
2022-08-26T13:36:42.471Z,94724.25
2022-08-26T13:38:40.837Z,94726.94
2022-08-26T13:40:40.839Z,94728.84
2022-08-26T13:42:49.417Z,94719.31
2022-08-26T13:44:50.661Z,94724.66
2022-08-26T13:46:49.489Z,94718.69
2022-08-26T13:48:49.629Z,94727.66
2022-08-26T13:50:48.540Z,94731.97
2022-08-26T13:52:46.935Z,94737.38
2022-08-26T13:54:45.738Z,94732.38
2022-08-26T13:56:43.989Z,94726.41
2022-08-26T13:58:42.434Z,94716.63
2022-08-26T14:00:41.373Z,94732.72
2022-08-26T14:02:39.609Z,94731.00
2022-08-26T14:04:39.427Z,94728.81
2022-08-26T14:06:37.779Z,94727.56
2022-08-26T14:08:36.957Z,94729.75
2022-08-26T14:10:35.341Z,94741.16
2022-08-26T14:12:33.759Z,94726.56
2022-08-26T14:14:32.016Z,94731.16
2022-08-26T14:16:34.682Z,94727.06
2022-08-26T14:18:41.093Z,94721.66
2022-08-26T14:20:41.678Z,94731.16
2022-08-26T14:22:52.090Z,94722.66
2022-08-26T14:24:56.610Z,94727.25
2022-08-26T14:26:54.992Z,94725.91
2022-08-26T14:28:53.752Z,94731.31
2022-08-26T14:30:55.001Z,94728.44
2022-08-26T14:32:58.336Z,94732.41
2022-08-26T14:34:57.525Z,94730.47
2022-08-26T14:36:57.195Z,94726.13
2022-08-26T14:38:56.404Z,94725.25
2022-08-26T14:40:54.674Z,94732.78
2022-08-26T14:42:55.122Z,94729.84
2022-08-26T14:44:59.786Z,94736.53
2022-08-26T14:46:58.196Z,94731.81
2022-08-26T14:48:57.306Z,94732.72
2022-08-26T14:51:00.387Z,94733.69
2022-08-26T14:53:17.607Z,94740.09
2022-08-26T14:55:15.922Z,94733.00
2022-08-26T14:57:15.530Z,94739.41
2022-08-26T14:59:21.990Z,94733.72
2022-08-26T15:01:23.091Z,94741.44
2022-08-26T15:03:21.951Z,94735.28
2022-08-26T15:05:20.958Z,94728.31
2022-08-26T15:07:20.172Z,94720.19
2022-08-26T15:09:20.450Z,94723.22
2022-08-26T15:11:19.279Z,94732.25
2022-08-26T15:13:17.562Z,94728.13
2022-08-26T15:15:18.630Z,94734.34
2022-08-26T15:17:17.602Z,94727.31
2022-08-26T15:19:16.683Z,94727.97
2022-08-26T15:21:15.222Z,94727.66
2022-08-26T15:23:15.710Z,94729.78
2022-08-26T15:25:18.292Z,94726.22
2022-08-26T15:27:17.223Z,94728.16
2022-08-26T15:29:16.037Z,94731.44
2022-08-26T15:31:14.335Z,94732.16
2022-08-26T15:33:15.416Z,94724.91
2022-08-26T15:35:13.826Z,94723.50
2022-08-26T15:37:12.393Z,94731.22
2022-08-26T15:39:10.873Z,94736.81
2022-08-26T15:41:11.745Z,94736.72
2022-08-26T15:43:27.960Z,94734.19
2022-08-26T15:45:26.916Z,94727.75
2022-08-26T15:47:26.124Z,94722.81
2022-08-26T15:49:27.739Z,94724.22
2022-08-26T15:51:28.969Z,94725.03
2022-08-26T15:53:28.100Z,94729.78
2022-08-26T15:55:26.705Z,94726.91
2022-08-26T15:57:28.013Z,94731.97
2022-08-26T15:59:26.703Z,94726.16
2022-08-26T16:01:27.491Z,94729.25
2022-08-26T16:03:26.255Z,94729.53
2022-08-26T16:05:24.677Z,94728.06
2022-08-26T16:07:23.591Z,94731.22
2022-08-26T16:09:24.300Z,94732.84
2022-08-26T16:11:26.141Z,94728.06
2022-08-26T16:13:26.064Z,94723.34
2022-08-26T16:15:27.253Z,94728.44
2022-08-26T16:17:25.855Z,94726.25
2022-08-26T16:19:24.383Z,94730.47
2022-08-26T16:21:25.662Z,94728.94
2022-08-26T16:23:24.414Z,94726.13
2022-08-26T16:25:23.141Z,94725.59
2022-08-26T16:27:23.155Z,94727.94
2022-08-26T16:29:23.028Z,94723.25
2022-08-26T16:31:21.555Z,94718.34
2022-08-26T16:33:29.309Z,94729.16
2022-08-26T16:35:28.156Z,94726.13
2022-08-26T16:37:26.678Z,94722.78
2022-08-26T16:39:25.166Z,94730.44
2022-08-26T16:41:24.186Z,94720.38
2022-08-26T16:43:25.600Z,94724.84
2022-08-26T16:45:26.132Z,94720.88
2022-08-26T16:47:24.503Z,94729.22
2022-08-26T16:49:22.884Z,94733.19
2022-08-26T16:51:24.171Z,94737.69
2022-08-26T16:53:22.896Z,94733.66
2022-08-26T16:55:21.662Z,94730.06
2022-08-26T16:57:20.076Z,94739.09
2022-08-26T16:59:18.393Z,94739.91
2022-08-26T17:01:18.849Z,94738.97
2022-08-26T17:03:17.287Z,94740.03
2022-08-26T17:05:15.897Z,94739.13
2022-08-26T17:07:14.254Z,94730.69
2022-08-26T17:09:13.078Z,94739.34
2022-08-26T17:11:11.765Z,94734.81
2022-08-26T17:13:10.321Z,94741.25
2022-08-26T17:15:10.638Z,94742.53
2022-08-26T17:17:10.239Z,94744.88
2022-08-26T17:19:08.566Z,94744.53
2022-08-26T17:21:09.270Z,94748.03
2022-08-26T17:23:09.603Z,94748.84
2022-08-26T17:25:13.432Z,94743.00
2022-08-26T17:27:11.910Z,94753.06
2022-08-26T17:29:10.295Z,94745.44
2022-08-26T17:31:09.542Z,94747.41
2022-08-26T17:33:11.223Z,94752.06
2022-08-26T17:35:11.001Z,94753.59
2022-08-26T17:37:11.249Z,94754.88
2022-08-26T17:39:11.232Z,94753.22
2022-08-26T17:41:13.650Z,94761.75
2022-08-26T17:43:12.599Z,94764.91
2022-08-26T17:45:13.978Z,94760.03
2022-08-26T17:47:14.985Z,94756.72
2022-08-26T17:49:16.138Z,94768.50
2022-08-26T17:51:16.762Z,94760.03
2022-08-26T17:53:18.859Z,94764.34
2022-08-26T17:55:19.234Z,94761.16
2022-08-26T17:57:18.424Z,94765.28
2022-08-26T17:59:17.393Z,94766.91
2022-08-26T18:01:16.834Z,94765.78
2022-08-26T18:03:15.667Z,94758.84
2022-08-26T18:05:17.820Z,94762.56
2022-08-26T18:07:17.050Z,94771.22
2022-08-26T18:09:15.241Z,94770.56
2022-08-26T18:11:15.853Z,94776.84
2022-08-26T18:13:15.367Z,94780.00
2022-08-26T18:15:15.278Z,94774.09
2022-08-26T18:17:13.995Z,94779.03
2022-08-26T18:19:17.867Z,94774.84
2022-08-26T18:21:19.560Z,94781.91
2022-08-26T18:23:18.361Z,94781.38
2022-08-26T18:25:18.505Z,94787.34
2022-08-26T18:27:17.936Z,94782.94
2022-08-26T18:29:18.601Z,94787.16
2022-08-26T18:31:17.210Z,94785.66
2022-08-26T18:33:15.971Z,94789.44
2022-08-26T18:35:15.136Z,94794.88
2022-08-26T18:37:14.903Z,94784.44
2022-08-26T18:39:15.520Z,94793.09
2022-08-26T18:41:13.857Z,94789.41
2022-08-26T18:43:12.957Z,94794.53
2022-08-26T18:45:16.047Z,94800.91
2022-08-26T18:47:14.956Z,94800.75
2022-08-26T18:49:15.058Z,94807.25
2022-08-26T18:51:18.403Z,94806.47
2022-08-26T18:53:18.128Z,94808.78
2022-08-26T18:55:49.110Z,94810.69
2022-08-26T18:57:47.539Z,94807.38
2022-08-26T18:59:46.032Z,94805.81
2022-08-26T19:01:50.421Z,94809.41
2022-08-26T19:03:49.257Z,94810.69
2022-08-26T19:05:47.921Z,94815.06
2022-08-26T19:07:46.209Z,94811.75
2022-08-26T19:09:48.002Z,94808.69
2022-08-26T19:11:52.331Z,94817.78
2022-08-26T19:13:50.750Z,94822.13
2022-08-26T19:15:49.152Z,94823.97
2022-08-26T19:17:48.300Z,94822.16
2022-08-26T19:19:46.935Z,94821.75
2022-08-26T19:21:45.671Z,94818.84
2022-08-26T19:23:44.450Z,94821.72
2022-08-26T19:25:44.817Z,94821.28
2022-08-26T19:27:43.229Z,94820.50
2022-08-26T19:29:42.241Z,94826.28
2022-08-26T19:31:42.260Z,94819.69
2022-08-26T19:33:45.601Z,94828.59
2022-08-26T19:35:46.360Z,94825.28
2022-08-26T19:37:44.990Z,94826.34
2022-08-26T19:39:43.450Z,94820.81
2022-08-26T19:41:43.272Z,94825.94
2022-08-26T19:43:41.565Z,94823.31
2022-08-26T19:45:40.254Z,94827.22
2022-08-26T19:47:39.744Z,94829.88
2022-08-26T19:49:39.444Z,94829.25
2022-08-26T19:51:37.990Z,94829.06
2022-08-26T19:53:36.265Z,94826.63
2022-08-26T19:55:35.177Z,94826.00
2022-08-26T19:57:35.434Z,94838.94
2022-08-26T19:59:35.509Z,94827.84
2022-08-26T20:01:33.757Z,94831.53
2022-08-26T20:03:33.359Z,94828.84
2022-08-26T20:05:31.809Z,94833.78
2022-08-26T20:07:30.043Z,94836.28
2022-08-26T20:09:28.916Z,94822.28
2022-08-26T20:11:27.381Z,94830.94
2022-08-26T20:13:27.101Z,94837.47
2022-08-26T20:15:25.516Z,94832.56
2022-08-26T20:17:26.913Z,94833.78
2022-08-26T20:19:42.731Z,94836.44
2022-08-26T20:21:41.438Z,94838.28
2022-08-26T20:23:41.397Z,94839.13
2022-08-26T20:25:39.846Z,94837.44
2022-08-26T20:27:38.704Z,94835.81
2022-08-26T20:29:38.599Z,94832.09
2022-08-26T20:31:37.477Z,94827.16
2022-08-26T20:33:46.317Z,94832.31
2022-08-26T20:35:45.058Z,94830.03
2022-08-26T20:37:44.006Z,94827.38
2022-08-26T20:39:42.366Z,94830.44
2022-08-26T20:41:41.316Z,94835.19
2022-08-26T20:43:39.745Z,94834.53
2022-08-26T20:45:39.372Z,94835.97
2022-08-26T20:47:37.709Z,94836.38
2022-08-26T20:49:36.541Z,94834.94
2022-08-26T20:51:37.433Z,94832.66
2022-08-26T20:53:35.920Z,94833.28
2022-08-26T20:55:34.225Z,94836.56
2022-08-26T20:57:32.644Z,94835.53
2022-08-26T20:59:30.833Z,94840.59
2022-08-26T21:01:34.769Z,94840.22
2022-08-26T21:03:33.213Z,94843.72
2022-08-26T21:05:31.631Z,94843.06
2022-08-26T21:07:30.177Z,94844.47
2022-08-26T21:09:28.895Z,94848.56
2022-08-26T21:11:29.237Z,94837.72
2022-08-26T21:13:30.744Z,94839.53
2022-08-26T21:15:34.252Z,94837.88
2022-08-26T21:17:34.056Z,94838.44
2022-08-26T21:19:32.298Z,94842.06
2022-08-26T21:21:30.850Z,94844.94
2022-08-26T21:23:29.436Z,94851.28
2022-08-26T21:25:27.877Z,94848.50
2022-08-26T21:27:26.689Z,94854.47
2022-08-26T21:29:26.295Z,94860.66
2022-08-26T21:31:26.294Z,94855.09
2022-08-26T21:33:25.996Z,94860.63
2022-08-26T21:35:27.530Z,94845.44
2022-08-26T21:37:27.623Z,94856.13
2022-08-26T21:39:25.974Z,94847.63
2022-08-26T21:41:25.102Z,94852.81
2022-08-26T21:43:33.692Z,94851.97
2022-08-26T21:45:34.233Z,94864.25
2022-08-26T21:47:32.863Z,94856.63
2022-08-26T21:49:32.523Z,94853.09
2022-08-26T21:51:32.758Z,94860.06
2022-08-26T21:53:31.236Z,94863.94
2022-08-26T21:55:29.496Z,94866.44
2022-08-26T21:57:28.828Z,94867.59
2022-08-26T21:59:27.063Z,94861.16
2022-08-26T22:01:29.592Z,94867.25
2022-08-26T22:03:28.138Z,94862.06
2022-08-26T22:05:31.245Z,94862.22
2022-08-26T22:07:29.658Z,94866.91
2022-08-26T22:09:30.899Z,94867.28
2022-08-26T22:11:29.692Z,94863.03
2022-08-26T22:13:31.926Z,94863.34
2022-08-26T22:15:33.133Z,94857.47
2022-08-26T22:17:31.693Z,94870.81
2022-08-26T22:19:31.801Z,94864.66
2022-08-26T22:21:35.872Z,94870.63
2022-08-26T22:23:34.497Z,94866.09
2022-08-26T22:25:33.598Z,94863.22
2022-08-26T22:27:31.878Z,94859.16
2022-08-26T22:29:30.149Z,94864.41
2022-08-26T22:31:37.788Z,94863.91
2022-08-26T22:33:36.914Z,94865.75
2022-08-26T22:35:40.631Z,94873.63
2022-08-26T22:37:40.398Z,94868.25
2022-08-26T22:39:39.328Z,94873.34
2022-08-26T22:41:37.621Z,94867.56
2022-08-26T22:43:36.257Z,94873.72
2022-08-26T22:45:34.571Z,94873.72
2022-08-26T22:47:33.526Z,94871.44
2022-08-26T22:49:34.066Z,94871.63
2022-08-26T22:51:32.614Z,94872.63
2022-08-26T22:53:35.219Z,94875.06
2022-08-26T22:55:34.353Z,94871.69
2022-08-26T22:57:33.027Z,94869.59
2022-08-26T22:59:31.331Z,94877.41
2022-08-26T23:01:29.831Z,94876.97
2022-08-26T23:03:28.719Z,94871.19
2022-08-26T23:05:27.012Z,94876.09
2022-08-26T23:07:25.379Z,94868.28
2022-08-26T23:09:25.072Z,94875.81
2022-08-26T23:11:23.370Z,94863.91
2022-08-26T23:13:22.051Z,94867.44
2022-08-26T23:15:21.250Z,94864.91
2022-08-26T23:17:19.456Z,94865.50
2022-08-26T23:19:19.741Z,94870.75
2022-08-26T23:21:17.976Z,94875.78
2022-08-26T23:23:16.310Z,94867.81
2022-08-26T23:25:16.139Z,94875.41
2022-08-26T23:27:14.472Z,94870.47
2022-08-26T23:29:15.724Z,94872.13
2022-08-26T23:31:14.804Z,94867.19
2022-08-26T23:33:13.285Z,94861.34
2022-08-26T23:35:12.008Z,94860.53
2022-08-26T23:37:12.708Z,94865.59
2022-08-26T23:39:11.103Z,94873.94
2022-08-26T23:41:10.757Z,94870.66
2022-08-26T23:43:12.610Z,94867.19
2022-08-26T23:45:13.554Z,94873.50
2022-08-26T23:47:12.251Z,94880.50
2022-08-26T23:49:10.531Z,94874.97
2022-08-26T23:51:26.535Z,94872.97
2022-08-26T23:53:24.994Z,94874.97